Time,TemperatureF,DewpointF,PressureIn,WindDirection,WindDirectionDegrees,WindSpeedMPH,WindSpeedGustMPH,Humidity,HourlyPrecipIn,Conditions,Clouds,dailyrainin,SoftwareType,DateUTC
2013-04-03 00:02:00,45.3,29.7,24.13,West,270,18.0,22.0,54,0.00,,,0.00,meteohub,2013-04-03 06:02:00,
2013-04-03 00:07:00,45.3,29.7,24.13,West,270,18.0,22.0,54,0.00,,,0.00,meteohub,2013-04-03 06:07:00,
2013-04-03 00:12:00,45.0,28.9,24.13,West,270,20.0,23.0,53,0.00,,,0.00,meteohub,2013-04-03 06:12:00,
2013-04-03 00:22:00,45.0,28.4,24.13,West,270,16.0,23.0,52,0.00,,,0.00,meteohub,2013-04-03 06:22:00,
2013-04-03 00:27:00,44.8,28.2,24.13,NW,315,20.0,21.0,52,0.00,,,0.00,meteohub,2013-04-03 06:27:00,
2013-04-03 00:32:00,45.0,27.9,24.13,West,270,17.0,21.0,51,0.00,,,0.00,meteohub,2013-04-03 06:32:00,
2013-04-03 00:42:00,44.6,27.5,24.12,West,270,21.0,24.0,51,0.00,,,0.00,meteohub,2013-04-03 06:42:00,
2013-04-03 00:52:00,44.4,27.5,24.12,NW,315,23.0,24.0,51,0.00,,,0.00,meteohub,2013-04-03 06:52:00,
2013-04-03 00:57:00,44.4,27.5,24.11,NW,315,27.0,27.0,51,0.00,,,0.00,meteohub,2013-04-03 06:57:00,
2013-04-03 01:02:00,44.8,27.3,24.11,West,270,31.0,31.0,50,0.00,,,0.00,meteohub,2013-04-03 07:02:00,
2013-04-03 01:12:00,44.2,27.3,24.11,NW,315,26.0,31.0,51,0.00,,,0.00,meteohub,2013-04-03 07:12:00,
2013-04-03 01:17:00,44.1,27.5,24.12,NW,315,29.0,31.0,52,0.00,,,0.00,meteohub,2013-04-03 07:17:00,
2013-04-03 01:22:00,43.3,27.9,24.13,NW,315,22.0,32.0,54,0.00,,,0.00,meteohub,2013-04-03 07:22:00,
2013-04-03 01:27:00,43.7,27.7,24.12,WNW,293,30.0,32.0,53,0.00,,,0.00,meteohub,2013-04-03 07:27:00,
2013-04-03 01:37:00,43.7,28.2,24.13,West,270,25.0,30.0,54,0.00,,,0.00,meteohub,2013-04-03 07:37:00,
2013-04-03 01:42:00,43.3,28.2,24.13,NW,315,20.0,30.0,55,0.00,,,0.00,meteohub,2013-04-03 07:42:00,
2013-04-03 01:47:00,43.3,28.2,24.14,NW,315,20.0,26.0,55,0.00,,,0.00,meteohub,2013-04-03 07:47:00,
2013-04-03 01:57:00,43.0,27.9,24.14,West,270,17.0,23.0,55,0.00,,,0.00,meteohub,2013-04-03 07:57:00,
2013-04-03 02:02:00,43.3,28.2,24.13,West,270,20.0,23.0,55,0.00,,,0.00,meteohub,2013-04-03 08:02:00,
2013-04-03 02:07:00,43.3,28.2,24.14,West,270,20.0,23.0,55,0.00,,,0.00,meteohub,2013-04-03 08:07:00,
2013-04-03 02:12:00,43.3,27.9,24.14,West,270,18.0,20.0,54,0.00,,,0.00,meteohub,2013-04-03 08:12:00,
2013-04-03 02:22:00,43.3,27.9,24.14,NW,315,17.0,22.0,54,0.00,,,0.00,meteohub,2013-04-03 08:22:00,
2013-04-03 02:27:00,43.2,28.0,24.14,West,270,20.0,22.0,55,0.00,,,0.00,meteohub,2013-04-03 08:27:00,
2013-04-03 02:32:00,42.6,28.0,24.14,West,270,16.0,22.0,56,0.00,,,0.00,meteohub,2013-04-03 08:32:00,
2013-04-03 02:37:00,42.3,28.6,24.14,NW,315,16.0,21.0,58,0.00,,,0.00,meteohub,2013-04-03 08:37:00,
2013-04-03 02:47:00,42.4,29.1,24.13,West,270,23.0,23.0,59,0.00,,,0.00,meteohub,2013-04-03 08:47:00,
2013-04-03 02:52:00,42.1,28.8,24.14,NW,315,17.0,24.0,59,0.00,,,0.00,meteohub,2013-04-03 08:52:00,
2013-04-03 02:57:00,42.1,29.1,24.14,NW,315,17.0,24.0,60,0.00,,,0.00,meteohub,2013-04-03 08:57:00,
2013-04-03 03:02:00,41.9,28.9,24.14,West,270,15.0,24.0,60,0.00,,,0.00,meteohub,2013-04-03 09:02:00,
2013-04-03 03:12:00,41.7,28.9,24.14,NW,315,15.0,20.0,60,0.00,,,0.00,meteohub,2013-04-03 09:12:00,
2013-04-03 03:17:00,41.9,28.6,24.14,NW,315,15.0,20.0,59,0.00,,,0.00,meteohub,2013-04-03 09:17:00,
2013-04-03 03:22:00,42.1,28.8,24.14,West,270,19.0,21.0,59,0.00,,,0.00,meteohub,2013-04-03 09:22:00,
2013-04-03 03:32:00,41.2,28.4,24.15,West,270,15.0,22.0,60,0.00,,,0.00,meteohub,2013-04-03 09:32:00,
2013-04-03 03:37:00,41.4,28.6,24.14,NW,315,21.0,22.0,60,0.00,,,0.00,meteohub,2013-04-03 09:37:00,
2013-04-03 03:42:00,41.2,28.4,24.14,NW,315,16.0,23.0,60,0.00,,,0.00,meteohub,2013-04-03 09:42:00,
2013-04-03 03:47:00,41.4,28.6,24.14,NW,315,21.0,23.0,60,0.00,,,0.00,meteohub,2013-04-03 09:47:00,
2013-04-03 03:52:00,41.7,28.4,24.14,NW,315,26.0,26.0,59,0.00,,,0.00,meteohub,2013-04-03 09:52:00,
2013-04-03 04:02:00,41.0,28.6,24.14,NW,315,29.0,29.0,61,0.00,,,0.00,meteohub,2013-04-03 10:02:00,
2013-04-03 04:07:00,41.0,28.6,24.14,NW,315,29.0,29.0,61,0.00,,,0.00,meteohub,2013-04-03 10:07:00,
2013-04-03 04:17:00,41.2,28.8,24.15,NW,315,21.0,29.0,61,0.00,,,0.00,meteohub,2013-04-03 10:17:00,
2013-04-03 04:22:00,40.6,29.1,24.15,NW,315,16.0,29.0,63,0.00,,,0.00,meteohub,2013-04-03 10:22:00,
2013-04-03 04:27:00,40.8,28.8,24.15,NW,315,20.0,27.0,62,0.00,,,0.00,meteohub,2013-04-03 10:27:00,
2013-04-03 04:37:00,41.2,28.4,24.15,NW,315,21.0,25.0,60,0.00,,,0.00,meteohub,2013-04-03 10:37:00,
2013-04-03 04:42:00,41.2,28.4,24.15,NW,315,26.0,26.0,60,0.00,,,0.00,meteohub,2013-04-03 10:42:00,
2013-04-03 04:47:00,40.8,28.4,24.15,West,270,23.0,26.0,61,0.00,,,0.00,meteohub,2013-04-03 10:47:00,
2013-04-03 04:52:00,41.4,28.0,24.15,NW,315,29.0,29.0,59,0.00,,,0.00,meteohub,2013-04-03 10:52:00,
2013-04-03 04:57:00,41.2,28.4,24.16,NW,315,30.0,30.0,60,0.00,,,0.00,meteohub,2013-04-03 10:57:00,
2013-04-03 05:02:00,41.2,28.4,24.16,NW,315,22.0,30.0,60,0.00,,,0.00,meteohub,2013-04-03 11:02:00,
2013-04-03 05:07:00,41.2,28.4,24.16,NW,315,22.0,30.0,60,0.00,,,0.00,meteohub,2013-04-03 11:07:00,
2013-04-03 05:17:00,40.8,28.0,24.17,NW,315,21.0,27.0,60,0.00,,,0.00,meteohub,2013-04-03 11:17:00,
2013-04-03 05:22:00,40.8,28.4,24.16,West,270,26.0,27.0,61,0.00,,,0.00,meteohub,2013-04-03 11:22:00,
2013-04-03 05:32:00,41.0,28.6,24.16,NW,315,27.0,28.0,61,0.00,,,0.00,meteohub,2013-04-03 11:32:00,
2013-04-03 05:37:00,41.0,28.6,24.16,NW,315,28.0,30.0,61,0.00,,,0.00,meteohub,2013-04-03 11:37:00,
2013-04-03 05:42:00,40.8,28.4,24.16,NW,315,24.0,30.0,61,0.00,,,0.00,meteohub,2013-04-03 11:42:00,
2013-04-03 05:47:00,41.2,28.4,24.16,NW,315,28.0,30.0,60,0.00,,,0.00,meteohub,2013-04-03 11:47:00,
2013-04-03 05:52:00,41.0,28.2,24.16,West,270,25.0,32.0,60,0.00,,,0.00,meteohub,2013-04-03 11:52:00,
2013-04-03 05:57:00,41.0,28.2,24.16,NW,315,27.0,32.0,60,0.00,,,0.00,meteohub,2013-04-03 11:57:00,
2013-04-03 06:07:00,41.2,28.4,24.16,West,270,25.0,33.0,60,0.00,,,0.00,meteohub,2013-04-03 12:07:00,
2013-04-03 06:12:00,41.2,27.9,24.16,WNW,293,28.0,33.0,59,0.00,,,0.00,meteohub,2013-04-03 12:12:00,
2013-04-03 06:22:00,40.8,28.0,24.16,NW,315,27.0,31.0,60,0.00,,,0.00,meteohub,2013-04-03 12:22:00,
2013-04-03 06:27:00,41.0,27.9,24.17,NW,315,26.0,31.0,59,0.00,,,0.00,meteohub,2013-04-03 12:27:00,
2013-04-03 06:32:00,41.2,28.4,24.17,West,270,35.0,35.0,60,0.00,,,0.00,meteohub,2013-04-03 12:32:00,
2013-04-03 06:37:00,40.5,28.0,24.17,West,270,23.0,35.0,61,0.00,,,0.00,meteohub,2013-04-03 12:37:00,
2013-04-03 06:42:00,40.6,28.2,24.17,West,270,23.0,35.0,61,0.00,,,0.00,meteohub,2013-04-03 12:42:00,
2013-04-03 06:47:00,40.6,28.2,24.17,NW,315,24.0,35.0,61,0.00,,,0.00,meteohub,2013-04-03 12:47:00,
2013-04-03 06:52:00,40.6,28.2,24.17,NW,315,24.0,27.0,61,0.00,,,0.00,meteohub,2013-04-03 12:52:00,
2013-04-03 06:57:00,41.0,27.9,24.17,NW,315,24.0,27.0,59,0.00,,,0.00,meteohub,2013-04-03 12:57:00,
2013-04-03 07:02:00,40.8,27.7,24.17,West,270,24.0,27.0,59,0.00,,,0.00,meteohub,2013-04-03 13:02:00,
2013-04-03 07:07:00,40.8,27.7,24.17,West,270,24.0,27.0,59,0.00,,,0.00,meteohub,2013-04-03 13:07:00,
2013-04-03 07:12:00,41.0,27.9,24.17,West,270,25.0,26.0,59,0.00,,,0.00,meteohub,2013-04-03 13:12:00,
2013-04-03 07:17:00,40.8,28.0,24.17,West,270,23.0,25.0,60,0.00,,,0.00,meteohub,2013-04-03 13:17:00,
2013-04-03 07:22:00,41.0,27.9,24.17,NW,315,23.0,25.0,59,0.00,,,0.00,meteohub,2013-04-03 13:22:00,
2013-04-03 07:27:00,41.4,27.3,24.18,NW,315,26.0,26.0,57,0.00,,,0.00,meteohub,2013-04-03 13:27:00,
2013-04-03 07:37:00,41.4,27.3,24.18,NW,315,25.0,27.0,57,0.00,,,0.00,meteohub,2013-04-03 13:37:00,
2013-04-03 07:42:00,41.2,27.9,24.18,WNW,293,24.0,27.0,59,0.00,,,0.00,meteohub,2013-04-03 13:42:00,
2013-04-03 07:47:00,41.4,28.0,24.19,West,270,23.0,25.0,59,0.00,,,0.00,meteohub,2013-04-03 13:47:00,
2013-04-03 07:52:00,41.5,27.9,24.19,WNW,293,21.0,27.0,58,0.00,,,0.00,meteohub,2013-04-03 13:52:00,
2013-04-03 07:57:00,41.4,27.7,24.19,NW,315,22.0,27.0,58,0.00,,,0.00,meteohub,2013-04-03 13:57:00,
2013-04-03 08:02:00,41.5,27.9,24.19,NW,315,24.0,27.0,58,0.00,,,0.00,meteohub,2013-04-03 14:02:00,
2013-04-03 08:07:00,41.5,27.9,24.19,NW,315,24.0,25.0,58,0.00,,,0.00,meteohub,2013-04-03 14:07:00,
2013-04-03 08:12:00,41.4,28.0,24.19,NW,315,23.0,25.0,59,0.00,,,0.00,meteohub,2013-04-03 14:12:00,
2013-04-03 08:17:00,41.5,28.2,24.19,NW,315,24.0,27.0,59,0.00,,,0.00,meteohub,2013-04-03 14:17:00,
2013-04-03 08:22:00,41.5,28.2,24.19,West,270,23.0,27.0,59,0.00,,,0.00,meteohub,2013-04-03 14:22:00,
2013-04-03 08:27:00,41.7,28.4,24.19,WNW,293,28.0,28.0,59,0.00,,,0.00,meteohub,2013-04-03 14:27:00,
2013-04-03 08:37:00,41.7,28.4,24.20,NW,315,24.0,28.0,59,0.00,,,0.00,meteohub,2013-04-03 14:37:00,
2013-04-03 08:42:00,41.4,28.6,24.20,NW,315,23.0,28.0,60,0.00,,,0.00,meteohub,2013-04-03 14:42:00,
2013-04-03 08:52:00,41.9,28.9,24.20,NW,315,26.0,27.0,60,0.00,,,0.00,meteohub,2013-04-03 14:52:00,
2013-04-03 08:57:00,41.9,28.9,24.20,NW,315,27.0,27.0,60,0.00,,,0.00,meteohub,2013-04-03 14:57:00,
2013-04-03 09:07:00,42.1,29.1,24.20,NW,315,27.0,29.0,60,0.00,,,0.00,meteohub,2013-04-03 15:07:00,
2013-04-03 09:12:00,42.3,29.8,24.20,NW,315,25.0,29.0,61,0.00,,,0.00,meteohub,2013-04-03 15:12:00,
2013-04-03 09:22:00,41.9,29.5,24.21,NW,315,21.0,27.0,61,0.00,,,0.00,meteohub,2013-04-03 15:22:00,
2013-04-03 09:27:00,42.1,29.7,24.20,NW,315,26.0,27.0,61,0.00,,,0.00,meteohub,2013-04-03 15:27:00,
2013-04-03 09:32:00,43.5,29.7,24.21,NW,315,24.0,26.0,58,0.00,,,0.00,meteohub,2013-04-03 15:32:00,
2013-04-03 09:37:00,44.4,29.7,24.21,NW,315,22.0,28.0,56,0.00,,,0.00,meteohub,2013-04-03 15:37:00,
2013-04-03 09:47:00,44.6,29.5,24.21,NW,315,22.0,27.0,55,0.00,,,0.00,meteohub,2013-04-03 15:47:00,
2013-04-03 09:57:00,45.1,28.9,24.22,NW,315,23.0,27.0,53,0.00,,,0.00,meteohub,2013-04-03 15:57:00,
2013-04-03 10:02:00,45.5,29.8,24.22,NW,315,20.0,27.0,54,0.00,,,0.00,meteohub,2013-04-03 16:02:00,
2013-04-03 10:07:00,45.5,29.8,24.22,NW,315,20.0,27.0,54,0.00,,,0.00,meteohub,2013-04-03 16:07:00,
2013-04-03 10:17:00,46.6,28.9,24.22,NW,315,25.0,25.0,50,0.00,,,0.00,meteohub,2013-04-03 16:17:00,
2013-04-03 10:22:00,47.1,28.4,24.22,NW,315,17.0,27.0,48,0.00,,,0.00,meteohub,2013-04-03 16:22:00,
2013-04-03 10:27:00,47.8,28.6,24.21,NW,315,26.0,30.0,47,0.00,,,0.00,meteohub,2013-04-03 16:27:00,
2013-04-03 10:37:00,47.5,28.2,24.21,NW,315,27.0,30.0,47,0.00,,,0.00,meteohub,2013-04-03 16:37:00,
2013-04-03 10:42:00,49.6,29.1,24.22,NNW,338,21.0,30.0,45,0.00,,,0.00,meteohub,2013-04-03 16:42:00,
2013-04-03 10:47:00,48.0,27.1,24.22,NW,315,27.0,30.0,44,0.00,,,0.00,meteohub,2013-04-03 16:47:00,
2013-04-03 10:57:00,46.0,27.9,24.22,WNW,293,23.0,30.0,49,0.00,,,0.00,meteohub,2013-04-03 16:57:00,
2013-04-03 11:07:00,46.0,27.9,24.22,North,0,23.0,27.0,49,0.00,,,0.00,meteohub,2013-04-03 17:07:00,
2013-04-03 11:17:00,45.3,27.9,24.23,North,0,21.0,27.0,50,0.00,,,0.00,meteohub,2013-04-03 17:17:00,
2013-04-03 11:27:00,44.4,29.3,24.23,North,0,18.0,27.0,55,0.00,,,0.00,meteohub,2013-04-03 17:27:00,
2013-04-03 11:37:00,46.2,29.5,24.23,North,0,19.0,26.0,52,0.00,,,0.00,meteohub,2013-04-03 17:37:00,
2013-04-03 11:42:00,47.5,28.8,24.24,North,0,22.0,22.0,48,0.00,,,0.00,meteohub,2013-04-03 17:42:00,
2013-04-03 11:52:00,45.5,30.2,24.23,North,0,24.0,29.0,55,0.00,,,0.00,meteohub,2013-04-03 17:52:00,
2013-04-03 11:57:00,45.3,29.7,24.23,North,0,19.0,29.0,54,0.00,,,0.00,meteohub,2013-04-03 17:57:00,
2013-04-03 12:02:00,47.3,32.4,24.22,North,0,25.0,29.0,56,0.00,,,0.00,meteohub,2013-04-03 18:02:00,
2013-04-03 12:12:00,46.0,31.6,24.22,North,0,28.0,29.0,57,0.00,,,0.00,meteohub,2013-04-03 18:12:00,
2013-04-03 12:22:00,44.8,31.8,24.23,NNW,338,39.0,42.0,60,0.00,,,0.00,meteohub,2013-04-03 18:22:00,
2013-04-03 12:27:00,44.1,32.7,24.23,North,0,40.0,42.0,64,0.00,,,0.00,meteohub,2013-04-03 18:27:00,
2013-04-03 12:32:00,42.6,31.3,24.22,WNW,293,40.0,44.0,64,0.00,,,0.00,meteohub,2013-04-03 18:32:00,
2013-04-03 12:42:00,42.4,31.1,24.23,North,0,42.0,44.0,64,0.00,,,0.00,meteohub,2013-04-03 18:42:00,
2013-04-03 12:47:00,41.0,30.6,24.24,North,0,34.0,42.0,66,0.00,,,0.00,meteohub,2013-04-03 18:47:00,
2013-04-03 12:52:00,41.0,31.6,24.24,WNW,293,33.0,42.0,69,0.00,,,0.00,meteohub,2013-04-03 18:52:00,
2013-04-03 12:57:00,40.5,31.5,24.24,North,0,35.0,42.0,70,0.00,,,0.00,meteohub,2013-04-03 18:57:00,
2013-04-03 13:02:00,40.6,31.6,24.25,North,0,31.0,36.0,70,0.00,,,0.00,meteohub,2013-04-03 19:02:00,
2013-04-03 13:07:00,40.6,31.6,24.25,North,0,31.0,37.0,70,0.00,,,0.00,meteohub,2013-04-03 19:07:00,
2013-04-03 13:12:00,40.5,31.5,24.25,North,0,29.0,37.0,70,0.00,,,0.00,meteohub,2013-04-03 19:12:00,
2013-04-03 13:22:00,40.6,33.1,24.25,North,0,26.0,33.0,74,0.00,,,0.00,meteohub,2013-04-03 19:22:00,
2013-04-03 13:27:00,40.1,32.5,24.25,NW,315,29.0,33.0,74,0.00,,,0.00,meteohub,2013-04-03 19:27:00,
2013-04-03 13:32:00,40.6,32.0,24.24,North,0,30.0,30.0,71,0.00,,,0.00,meteohub,2013-04-03 19:32:00,
2013-04-03 13:42:00,42.4,32.7,24.24,NW,315,24.0,31.0,68,0.00,,,0.00,meteohub,2013-04-03 19:42:00,
2013-04-03 13:52:00,42.1,32.7,24.25,NW,315,25.0,30.0,69,0.00,,,0.00,meteohub,2013-04-03 19:52:00,
2013-04-03 13:57:00,41.7,32.0,24.25,North,0,25.0,30.0,68,0.00,,,0.00,meteohub,2013-04-03 19:57:00,
2013-04-03 14:02:00,41.4,32.0,24.25,NNW,338,27.0,30.0,69,0.00,,,0.00,meteohub,2013-04-03 20:02:00,
2013-04-03 14:07:00,41.4,32.0,24.25,NNW,338,27.0,30.0,69,0.00,,,0.00,meteohub,2013-04-03 20:07:00,
2013-04-03 14:12:00,41.0,32.0,24.25,North,0,23.0,29.0,70,0.00,,,0.00,meteohub,2013-04-03 20:12:00,
2013-04-03 14:22:00,40.5,31.8,24.25,NW,315,19.0,27.0,71,0.00,,,0.00,meteohub,2013-04-03 20:22:00,
2013-04-03 14:32:00,40.8,32.2,24.25,North,0,15.0,21.0,71,0.00,,,0.00,meteohub,2013-04-03 20:32:00,
2013-04-03 14:42:00,41.2,32.5,24.25,North,0,16.0,19.0,71,0.00,,,0.00,meteohub,2013-04-03 20:42:00,
2013-04-03 14:47:00,41.2,32.5,24.25,North,0,15.0,18.0,71,0.00,,,0.00,meteohub,2013-04-03 20:47:00,
2013-04-03 14:52:00,41.4,32.4,24.25,North,0,12.0,18.0,70,0.00,,,0.00,meteohub,2013-04-03 20:52:00,
2013-04-03 15:02:00,42.1,32.7,24.24,North,0,10.0,16.0,69,0.00,,,0.00,meteohub,2013-04-03 21:02:00,
2013-04-03 15:07:00,42.1,32.7,24.24,North,0,10.0,13.0,69,0.00,,,0.00,meteohub,2013-04-03 21:07:00,
2013-04-03 15:12:00,46.2,33.4,24.24,North,0,6.0,12.0,61,0.00,,,0.00,meteohub,2013-04-03 21:12:00,
2013-04-03 15:17:00,46.8,33.3,24.25,North,0,5.0,10.0,59,0.00,,,0.00,meteohub,2013-04-03 21:17:00,
2013-04-03 15:27:00,44.8,32.5,24.25,North,0,6.0,13.0,62,0.00,,,0.00,meteohub,2013-04-03 21:27:00,
2013-04-03 15:32:00,44.2,32.9,24.25,NW,315,11.0,13.0,64,0.00,,,0.00,meteohub,2013-04-03 21:32:00,
2013-04-03 15:42:00,43.7,33.1,24.24,NW,315,13.0,16.0,66,0.00,,,0.00,meteohub,2013-04-03 21:42:00,
2013-04-03 15:47:00,43.9,33.3,24.24,NNW,338,11.0,16.0,66,0.00,,,0.00,meteohub,2013-04-03 21:47:00,
2013-04-03 15:52:00,44.1,32.7,24.24,NW,315,11.0,16.0,64,0.00,,,0.00,meteohub,2013-04-03 21:52:00,
2013-04-03 15:57:00,44.1,33.1,24.24,NW,315,11.0,14.0,65,0.00,,,0.00,meteohub,2013-04-03 21:57:00,
2013-04-03 16:07:00,44.4,34.2,24.23,North,0,10.0,12.0,67,0.00,,,0.00,meteohub,2013-04-03 22:07:00,
2013-04-03 16:12:00,46.6,33.8,24.23,NE,45,12.0,12.0,61,0.00,,,0.00,meteohub,2013-04-03 22:12:00,
2013-04-03 16:17:00,46.6,33.4,24.23,NE,45,9.0,12.0,60,0.00,,,0.00,meteohub,2013-04-03 22:17:00,
2013-04-03 16:27:00,48.0,33.4,24.22,NE,45,5.0,12.0,57,0.00,,,0.00,meteohub,2013-04-03 22:27:00,
2013-04-03 16:37:00,48.6,32.7,24.22,NE,45,9.0,9.0,54,0.00,,,0.00,meteohub,2013-04-03 22:37:00,
2013-04-03 16:42:00,48.7,33.3,24.22,North,0,7.0,11.0,55,0.00,,,0.00,meteohub,2013-04-03 22:42:00,
2013-04-03 16:47:00,49.1,33.3,24.22,NE,45,7.0,13.0,54,0.00,,,0.00,meteohub,2013-04-03 22:47:00,
2013-04-03 16:52:00,48.9,34.0,24.22,North,0,8.0,13.0,56,0.00,,,0.00,meteohub,2013-04-03 22:52:00,
2013-04-03 16:57:00,49.1,33.3,24.22,North,0,7.0,11.0,54,0.00,,,0.00,meteohub,2013-04-03 22:57:00,
2013-04-03 17:02:00,50.4,34.3,24.22,NE,45,6.0,13.0,54,0.00,,,0.00,meteohub,2013-04-03 23:02:00,
2013-04-03 17:07:00,50.4,34.3,24.22,NE,45,6.0,13.0,54,0.00,,,0.00,meteohub,2013-04-03 23:07:00,
2013-04-03 17:17:00,48.9,34.0,24.22,North,0,4.0,12.0,56,0.00,,,0.00,meteohub,2013-04-03 23:17:00,
2013-04-03 17:27:00,51.1,34.0,24.22,NE,45,4.0,12.0,52,0.00,,,0.00,meteohub,2013-04-03 23:27:00,
2013-04-03 17:32:00,50.9,33.4,24.22,North,0,4.0,7.0,51,0.00,,,0.00,meteohub,2013-04-03 23:32:00,
2013-04-03 17:37:00,50.5,33.6,24.22,North,0,6.0,7.0,52,0.00,,,0.00,meteohub,2013-04-03 23:37:00,
2013-04-03 17:42:00,50.5,33.1,24.22,NW,315,5.0,8.0,51,0.00,,,0.00,meteohub,2013-04-03 23:42:00,
2013-04-03 17:47:00,49.8,33.8,24.22,NW,315,7.0,9.0,54,0.00,,,0.00,meteohub,2013-04-03 23:47:00,
2013-04-03 17:52:00,50.0,32.5,24.22,East,90,2.0,9.0,51,0.00,,,0.00,meteohub,2013-04-03 23:52:00,
2013-04-03 18:02:00,49.6,33.3,24.22,NE,45,6.0,11.0,53,0.00,,,0.00,meteohub,2013-04-04 00:02:00,
2013-04-03 18:07:00,49.6,33.3,24.22,NE,45,6.0,11.0,53,0.00,,,0.00,meteohub,2013-04-04 00:07:00,
2013-04-03 18:12:00,50.7,33.3,24.22,SSW,203,3.0,11.0,51,0.00,,,0.00,meteohub,2013-04-04 00:12:00,
2013-04-03 18:17:00,51.4,32.9,24.22,SE,135,2.0,6.0,49,0.00,,,0.00,meteohub,2013-04-04 00:17:00,
2013-04-03 18:27:00,50.7,32.7,24.22,East,90,4.0,7.0,50,0.00,,,0.00,meteohub,2013-04-04 00:27:00,
2013-04-03 18:32:00,50.2,32.7,24.22,East,90,3.0,7.0,51,0.00,,,0.00,meteohub,2013-04-04 00:32:00,
2013-04-03 18:42:00,50.9,33.4,24.22,West,270,7.0,7.0,51,0.00,,,0.00,meteohub,2013-04-04 00:42:00,
2013-04-03 18:52:00,48.0,32.5,24.21,NW,315,8.0,8.0,55,0.00,,,0.00,meteohub,2013-04-04 00:52:00,
2013-04-03 18:57:00,46.6,32.5,24.22,North,0,6.0,8.0,58,0.00,,,0.00,meteohub,2013-04-04 00:57:00,
2013-04-03 19:02:00,46.6,33.1,24.22,North,0,6.0,8.0,59,0.00,,,0.00,meteohub,2013-04-04 01:02:00,
2013-04-03 19:07:00,46.6,33.1,24.21,North,0,6.0,8.0,59,0.00,,,0.00,meteohub,2013-04-04 01:07:00,
2013-04-03 19:17:00,48.0,32.5,24.21,West,270,4.0,6.0,55,0.00,,,0.00,meteohub,2013-04-04 01:17:00,
2013-04-03 19:22:00,48.2,32.4,24.21,West,270,1.0,6.0,54,0.00,,,0.00,meteohub,2013-04-04 01:22:00,
2013-04-03 19:27:00,48.4,32.5,24.21,NW,315,2.0,4.0,54,0.00,,,0.00,meteohub,2013-04-04 01:27:00,
2013-04-03 19:32:00,47.7,32.4,24.20,North,0,2.0,4.0,55,0.00,,,0.00,meteohub,2013-04-04 01:32:00,
2013-04-03 19:37:00,46.4,32.4,24.21,North,0,2.0,2.0,58,0.00,,,0.00,meteohub,2013-04-04 01:37:00,
2013-04-03 19:42:00,45.1,32.0,24.21,NW,315,3.0,3.0,60,0.00,,,0.00,meteohub,2013-04-04 01:42:00,
2013-04-03 19:47:00,44.2,32.0,24.21,NW,315,4.0,4.0,62,0.00,,,0.00,meteohub,2013-04-04 01:47:00,
2013-04-03 19:57:00,43.2,32.2,24.20,NW,315,4.0,5.0,65,0.00,,,0.00,meteohub,2013-04-04 01:57:00,
2013-04-03 20:02:00,43.2,32.2,24.20,WNW,293,4.0,5.0,65,0.00,,,0.00,meteohub,2013-04-04 02:02:00,
2013-04-03 20:07:00,43.2,32.2,24.20,WNW,293,4.0,5.0,65,0.00,,,0.00,meteohub,2013-04-04 02:07:00,
2013-04-03 20:17:00,43.2,32.2,24.20,South,180,6.0,6.0,65,0.00,,,0.00,meteohub,2013-04-04 02:17:00,
2013-04-03 20:22:00,43.3,32.0,24.20,SW,225,4.0,6.0,64,0.00,,,0.00,meteohub,2013-04-04 02:22:00,
2013-04-03 20:27:00,42.8,31.8,24.20,NW,315,4.0,6.0,65,0.00,,,0.00,meteohub,2013-04-04 02:27:00,
2013-04-03 20:37:00,42.3,32.2,24.20,South,180,3.0,6.0,67,0.00,,,0.00,meteohub,2013-04-04 02:37:00,
2013-04-03 20:42:00,43.0,32.0,24.19,South,180,4.0,6.0,65,0.00,,,0.00,meteohub,2013-04-04 02:42:00,
2013-04-03 20:47:00,43.3,31.6,24.19,South,180,5.0,5.0,63,0.00,,,0.00,meteohub,2013-04-04 02:47:00,
2013-04-03 20:57:00,43.3,32.0,24.20,South,180,7.0,8.0,64,0.00,,,0.00,meteohub,2013-04-04 02:57:00,
2013-04-03 21:07:00,43.2,32.2,24.20,South,180,6.0,8.0,65,0.00,,,0.00,meteohub,2013-04-04 03:07:00,
2013-04-03 21:17:00,43.5,31.8,24.20,South,180,9.0,9.0,63,0.00,,,0.00,meteohub,2013-04-04 03:17:00,
2013-04-03 21:22:00,43.5,31.8,24.19,SSW,203,8.0,9.0,63,0.00,,,0.00,meteohub,2013-04-04 03:22:00,
2013-04-03 21:32:00,43.9,31.6,24.19,South,180,11.0,12.0,62,0.00,,,0.00,meteohub,2013-04-04 03:32:00,
2013-04-03 21:37:00,43.5,31.8,24.19,South,180,11.0,12.0,63,0.00,,,0.00,meteohub,2013-04-04 03:37:00,
2013-04-03 21:42:00,43.5,31.8,24.19,South,180,11.0,11.0,63,0.00,,,0.00,meteohub,2013-04-04 03:42:00,
2013-04-03 21:47:00,43.5,31.3,24.19,South,180,9.0,11.0,62,0.00,,,0.00,meteohub,2013-04-04 03:47:00,
2013-04-03 21:52:00,43.7,31.5,24.19,South,180,11.0,11.0,62,0.00,,,0.00,meteohub,2013-04-04 03:52:00,
2013-04-03 22:02:00,43.9,31.6,24.19,South,180,9.0,11.0,62,0.00,,,0.00,meteohub,2013-04-04 04:02:00,
2013-04-03 22:07:00,43.9,31.6,24.19,South,180,9.0,11.0,62,0.00,,,0.00,meteohub,2013-04-04 04:07:00,
2013-04-03 22:12:00,43.7,31.5,24.20,South,180,11.0,11.0,62,0.00,,,0.00,meteohub,2013-04-04 04:12:00,
2013-04-03 22:17:00,43.5,31.8,24.19,South,180,11.0,11.0,63,0.00,,,0.00,meteohub,2013-04-04 04:17:00,
2013-04-03 22:27:00,43.5,31.8,24.19,South,180,11.0,11.0,63,0.00,,,0.00,meteohub,2013-04-04 04:27:00,
2013-04-03 22:37:00,43.5,31.8,24.20,South,180,11.0,13.0,63,0.00,,,0.00,meteohub,2013-04-04 04:37:00,
2013-04-03 22:42:00,43.3,31.6,24.20,South,180,11.0,13.0,63,0.00,,,0.00,meteohub,2013-04-04 04:42:00,
2013-04-03 22:47:00,43.5,31.8,24.20,South,180,11.0,13.0,63,0.00,,,0.00,meteohub,2013-04-04 04:47:00,
2013-04-03 22:57:00,43.5,31.8,24.20,South,180,10.0,12.0,63,0.00,,,0.00,meteohub,2013-04-04 04:57:00,
2013-04-03 23:02:00,43.5,31.8,24.20,South,180,9.0,12.0,63,0.00,,,0.00,meteohub,2013-04-04 05:02:00,
2013-04-03 23:07:00,43.5,31.8,24.19,South,180,9.0,11.0,63,0.00,,,0.00,meteohub,2013-04-04 05:07:00,
2013-04-03 23:17:00,44.4,28.8,24.19,SW,225,10.0,11.0,54,0.00,,,0.00,meteohub,2013-04-04 05:17:00,
2013-04-03 23:27:00,43.9,30.6,24.19,SSW,203,8.0,13.0,59,0.00,,,0.00,meteohub,2013-04-04 05:27:00,
2013-04-03 23:32:00,44.2,28.6,24.19,SSW,203,11.0,13.0,54,0.00,,,0.00,meteohub,2013-04-04 05:32:00,
2013-04-03 23:37:00,44.2,28.6,24.19,SW,225,10.0,12.0,54,0.00,,,0.00,meteohub,2013-04-04 05:37:00,
2013-04-03 23:42:00,44.4,28.4,24.19,SW,225,11.0,13.0,53,0.00,,,0.00,meteohub,2013-04-04 05:42:00,
2013-04-03 23:47:00,44.1,28.0,24.19,SW,225,11.0,13.0,53,0.00,,,0.00,meteohub,2013-04-04 05:47:00,
2013-04-03 23:52:00,44.2,27.7,24.19,SW,225,13.0,13.0,52,0.00,,,0.00,meteohub,2013-04-04 05:52:00,
2013-04-03 23:57:00,44.2,27.7,24.19,SW,225,14.0,14.0,52,0.00,,,0.00,meteohub,2013-04-04 05:57:00,